VOCB

Coimbatore International Airport

Coimbatore, India
TAF VOCB 151100Z 1512/1618 04005KT 6000 SCT015 SCT020 BKN080 BECMG 1515/1516 05010G20KT TEMPO 1515/1521 3000 TSRA/RA SCT015 FEW020CB BKN080 TEMPO 1600/1606 3000 TSRA/RA SCT015 FEW020CB BKN080 BECMG 1609/1610 05010KT
Issued Valid From Valid To
Nov-15 @ 11:00 UTC
(2 hours ago)
Nov-15 @ 12:00 UTC
(42 minutes ago)
Nov-16 @ 18:00 UTC
(-1 days ago)
Nov-15 @ 12:00 to Nov-15 @ 15:00
TAF VOCB 151100Z 1512/1618 04005KT 6000 SCT015 SCT020 BKN080
Wind Visibility Clouds
40° at 5 knots 6,003 meters
  • Scattered at 1,500' AGL
  • Scattered at 2,000' AGL
  • Broken at 8,000' AGL
Temporary Nov-15 @ 15:00 to Nov-15 @ 21:00
TEMPO 1515/1521 3000 TSRA/RA SCT015 FEW020CB BKN080
Visibility Clouds Conditions
2,993 meters
  • Scattered at 1,500' AGL
  • Few at 2,000' AGL
  • Broken at 8,000' AGL
  • Thunderstorm
  • Rain
  • Rain
Becoming Nov-15 @ 15:00 to Nov-16 @ 09:00
BECMG 1515/1516 05010G20KT
Wind Visibility Clouds
50° at 10 knots
 Gusting to 20 knots
6,003 meters
  • Scattered at 1,500' AGL
  • Scattered at 2,000' AGL
  • Broken at 8,000' AGL
Temporary Nov-16 @ 00:00 to Nov-16 @ 06:00
TEMPO 1600/1606 3000 TSRA/RA SCT015 FEW020CB BKN080
Visibility Clouds Conditions
2,993 meters
  • Scattered at 1,500' AGL
  • Few at 2,000' AGL
  • Broken at 8,000' AGL
  • Thunderstorm
  • Rain
  • Rain
Becoming Nov-16 @ 09:00 to Nov-16 @ 18:00
BECMG 1609/1610 05010KT
Wind Visibility Clouds
50° at 10 knots 6,003 meters
  • Scattered at 1,500' AGL
  • Scattered at 2,000' AGL
  • Broken at 8,000' AGL
TAF VOCB 151100Z 1512/1618 04005KT 6000 SCT015 SCT020 BKN080 BECMG 1515/1516 05010G20KT TEMPO 1515/1521 3000 TSRA/RA SCT015 FEW020CB BKN080 TEMPO 1600/1606 3000 TSRA/RA SCT015 FEW020CB BKN080 BECMG 1609/1610 05010KT
Issued Nov-15 @ 11:00 UTC
(2 hours ago)
Valid From Nov-15 @ 12:00 UTC
(42 minutes ago)
Valid To Nov-16 @ 18:00 UTC
(-1 days ago)
Nov-15 @ 12:00 - Nov-15 @ 15:00
Wind Visibility
40° at 5 knots 6,003 meters
Clouds
  • Scattered at 1,500' AGL
  • Scattered at 2,000' AGL
  • Broken at 8,000' AGL
Temporary Nov-15 @ 15:00 - Nov-15 @ 21:00
Clouds
  • Scattered at 1,500' AGL
  • Few at 2,000' AGL
  • Broken at 8,000' AGL
Conditions
  • Thunderstorm
  • Rain
  • Rain
Becoming Nov-15 @ 15:00 - Nov-16 @ 09:00
Wind Visibility
50° at 10 knots
 Gusting to 20 knots
6,003 meters
Clouds
  • Scattered at 1,500' AGL
  • Scattered at 2,000' AGL
  • Broken at 8,000' AGL
Temporary Nov-16 @ 00:00 - Nov-16 @ 06:00
Clouds
  • Scattered at 1,500' AGL
  • Few at 2,000' AGL
  • Broken at 8,000' AGL
Conditions
  • Thunderstorm
  • Rain
  • Rain
Becoming Nov-16 @ 09:00 - Nov-16 @ 18:00
Wind Visibility
50° at 10 knots 6,003 meters
Clouds
  • Scattered at 1,500' AGL
  • Scattered at 2,000' AGL
  • Broken at 8,000' AGL